Time;durP1;ratioP1;P1;durP2;ratioP2;P2;SDS_P1;SDS_P2;PMS_P1;PMS_P2;Temp;Humidity;BMP_temperature;BMP_pressure;BME280_temperature;BME280_humidity;BME280_pressure;Samples;Min_cycle;Max_cycle;Signal;HPM_P1;HPM_P2
2023/02/22 00:01:27;;;;;;;13.65;4.35;;;;;;;8.52;76.02;101209.00;5007090;28;20194;-71
2023/02/22 00:03:56;;;;;;;17.95;4.30;;;;;;;8.58;77.85;101213.63;5012539;28;20194;-71
2023/02/22 00:06:28;;;;;;;15.75;4.40;;;;;;;8.48;77.58;101205.78;5012815;28;20760;-71
2023/02/22 00:08:58;;;;;;;11.38;4.22;;;;;;;8.50;77.69;101206.47;5011456;28;20225;-71
2023/02/22 00:11:27;;;;;;;14.07;4.35;;;;;;;8.40;77.20;101203.16;5013615;28;20300;-71
2023/02/22 00:13:56;;;;;;;14.75;3.25;;;;;;;8.49;76.64;101203.94;5000809;28;20194;-71
2023/02/22 00:16:26;;;;;;;16.13;3.73;;;;;;;8.42;76.34;101200.31;4999446;28;20316;-71
2023/02/22 00:18:56;;;;;;;19.38;5.00;;;;;;;8.27;76.38;101195.66;5011626;28;20481;-70
2023/02/22 00:21:26;;;;;;;27.45;3.97;;;;;;;8.34;76.47;101192.25;5012234;28;20198;-70
2023/02/22 00:23:55;;;;;;;11.55;4.45;;;;;;;8.32;76.96;101194.31;5018442;28;20209;-71
2023/02/22 00:26:24;;;;;;;21.50;6.22;;;;;;;8.23;76.42;101201.56;5025981;28;20316;-70
2023/02/22 00:28:55;;;;;;;8.30;3.50;;;;;;;8.13;77.05;101201.81;5036009;28;20288;-71
2023/02/22 00:31:25;;;;;;;16.58;3.65;;;;;;;8.15;78.02;101199.78;5016878;28;20431;-71
2023/02/22 00:33:54;;;;;;;12.52;3.63;;;;;;;8.16;76.75;101190.69;5005019;28;20203;-70
2023/02/22 00:36:48;;;;;;;30.20;5.28;;;;;;;8.14;76.96;101191.84;5013789;28;20320;-70
2023/02/22 00:39:17;;;;;;;22.33;5.97;;;;;;;8.11;78.62;101192.22;5017463;28;20201;-71
2023/02/22 00:41:46;;;;;;;19.50;3.83;;;;;;;8.02;78.76;101188.75;5032362;28;20197;-69
2023/02/22 00:44:16;;;;;;;12.00;3.53;;;;;;;8.01;79.22;101181.69;5019814;28;20230;-70
2023/02/22 00:46:46;;;;;;;13.30;4.78;;;;;;;7.92;79.17;101184.59;5026197;28;20671;-71
2023/02/22 00:49:16;;;;;;;17.08;5.25;;;;;;;7.67;79.61;101189.28;5016776;28;20190;-68
2023/02/22 00:51:45;;;;;;;12.63;5.13;;;;;;;7.48;80.67;101187.88;5040450;28;20193;-69
2023/02/22 00:54:18;;;;;;;14.02;4.60;;;;;;;7.31;82.16;101187.06;5028757;28;20746;-69
2023/02/22 00:56:49;;;;;;;18.17;5.20;;;;;;;7.19;82.38;101190.31;5025273;28;20304;-70
2023/02/22 00:59:18;;;;;;;27.65;4.88;;;;;;;7.08;82.88;101188.84;5033687;28;20677;-70
2023/02/22 01:01:47;;;;;;;18.70;4.07;;;;;;;7.05;84.04;101189.19;5016552;28;20190;-71
2023/02/22 01:04:17;;;;;;;20.77;6.03;;;;;;;6.98;84.71;101188.19;5007713;28;20194;-71
2023/02/22 01:06:46;;;;;;;19.38;4.80;;;;;;;6.99;84.91;101189.88;5006393;28;20400;-70
2023/02/22 01:09:17;;;;;;;19.23;5.35;;;;;;;7.25;86.97;101195.88;5005822;28;20260;-70
2023/02/22 01:11:46;;;;;;;19.58;5.07;;;;;;;7.24;84.20;101193.34;5021199;28;20210;-69
2023/02/22 01:14:15;;;;;;;22.45;4.47;;;;;;;7.13;84.64;101186.47;5019970;28;20206;-70
2023/02/22 01:16:46;;;;;;;19.88;5.32;;;;;;;7.03;85.06;101193.06;5017848;28;20225;-70
2023/02/22 01:19:15;;;;;;;17.58;5.25;;;;;;;7.27;85.10;101199.22;5011350;28;20604;-72
2023/02/22 01:21:44;;;;;;;16.98;4.40;;;;;;;7.37;85.11;101199.00;5007638;28;20237;-71
2023/02/22 01:24:15;;;;;;;27.40;5.57;;;;;;;7.42;84.84;101192.09;5008554;28;20737;-73
2023/02/22 01:26:50;;;;;;;19.05;4.85;;;;;;;7.55;84.04;101190.72;5012840;28;20702;-69
2023/02/22 01:29:21;;;;;;;18.23;4.78;;;;;;;7.55;83.60;101188.81;5016175;28;20285;-69
2023/02/22 01:31:55;;;;;;;15.70;5.50;;;;;;;7.70;83.47;101184.38;5012618;28;20681;-70
2023/02/22 01:34:25;;;;;;;13.18;4.93;;;;;;;7.65;82.88;101175.19;5012427;28;20196;-72
2023/02/22 01:36:55;;;;;;;13.00;3.38;;;;;;;7.66;82.74;101174.13;5016121;28;20217;-70
2023/02/22 01:39:24;;;;;;;11.35;4.20;;;;;;;7.58;83.43;101174.19;5017554;28;20221;-72
2023/02/22 01:41:55;;;;;;;12.63;3.35;;;;;;;7.72;83.42;101173.44;5011513;28;20194;-72
2023/02/22 01:44:29;;;;;;;26.02;4.55;;;;;;;7.70;82.46;101170.06;5035684;28;20687;-73
2023/02/22 01:47:02;;;;;;;9.73;3.50;;;;;;;7.68;82.56;101172.97;5023435;28;20740;-72
2023/02/22 01:49:35;;;;;;;22.30;4.72;;;;;;;7.74;82.34;101176.81;5011308;28;20194;-71
2023/02/22 01:52:08;;;;;;;18.20;5.22;;;;;;;7.88;81.93;101165.28;5014307;28;20206;-71
2023/02/22 01:54:41;;;;;;;19.42;5.65;;;;;;;8.03;80.42;101176.97;5036732;28;20284;-72
2023/02/22 01:57:18;;;;;;;11.75;4.68;;;;;;;8.04;81.09;101169.69;5019569;28;20219;-73
2023/02/22 01:59:51;;;;;;;16.83;4.45;;;;;;;7.95;80.54;101171.59;5000665;28;20245;-70
2023/02/22 02:02:23;;;;;;;14.32;4.00;;;;;;;7.76;81.47;101169.38;5015414;28;20197;-70
2023/02/22 02:04:56;;;;;;;15.13;5.90;;;;;;;7.91;81.92;101164.91;5014841;28;20206;-72
2023/02/22 02:07:28;;;;;;;22.15;5.35;;;;;;;7.93;81.37;101157.50;5002758;28;20237;-71
2023/02/22 02:09:59;;;;;;;18.52;5.28;;;;;;;7.89;80.74;101166.13;5011268;28;20379;-72
2023/02/22 02:12:34;;;;;;;16.55;5.60;;;;;;;7.84;80.79;101163.94;5017989;28;20210;-73
2023/02/22 02:15:19;;;;;;;17.30;4.90;;;;;;;7.89;81.10;101164.22;5021652;28;20212;-73
2023/02/22 02:17:49;;;;;;;22.98;4.78;;;;;;;7.98;79.91;101162.34;5026882;28;20291;-71
2023/02/22 02:20:24;;;;;;;7.10;3.13;;;;;;;7.90;80.33;101163.22;5020426;28;20281;-73
2023/02/22 02:22:59;;;;;;;15.02;4.72;;;;;;;7.94;81.46;101163.72;5001074;28;20206;-71
2023/02/22 02:26:09;;;;;;;10.63;4.43;;;;;;;7.89;81.53;101166.91;5006712;28;20202;-69
2023/02/22 02:29:20;;;;;;;16.05;4.75;;;;;;;7.95;81.40;101152.75;5026030;28;20247;-71
2023/02/22 02:32:14;;;;;;;14.88;6.15;;;;;;;7.88;81.94;101154.50;4989811;28;20296;-72
2023/02/22 02:34:55;;;;;;;15.73;4.72;;;;;;;7.75;82.32;101159.59;5040191;28;20205;-72
2023/02/22 02:37:33;;;;;;;22.25;3.85;;;;;;;7.77;82.65;101152.19;5030445;28;20232;-72
2023/02/22 02:40:16;;;;;;;19.42;5.90;;;;;;;7.82;81.57;101152.50;5015696;28;20678;-72
2023/02/22 02:42:53;;;;;;;9.40;4.50;;;;;;;7.81;81.91;101150.81;5022046;28;20200;-70
2023/02/22 02:45:29;;;;;;;12.70;3.92;;;;;;;7.81;82.53;101153.50;5021196;28;20190;-71
2023/02/22 02:48:02;;;;;;;12.15;4.80;;;;;;;7.80;82.88;101157.22;5018701;28;20221;-71
2023/02/22 02:50:36;;;;;;;9.85;4.00;;;;;;;7.80;82.72;101159.91;5025559;28;20201;-71
2023/02/22 02:53:08;;;;;;;17.23;4.88;;;;;;;7.65;83.74;101148.25;5022959;28;20243;-72
2023/02/22 02:55:38;;;;;;;12.48;5.60;;;;;;;7.64;84.79;101146.56;5030687;28;20573;-71
2023/02/22 02:58:08;;;;;;;12.85;4.28;;;;;;;7.38;84.99;101157.63;5005482;28;20214;-72
2023/02/22 03:00:41;;;;;;;15.27;4.20;;;;;;;7.19;86.01;101153.50;5021797;28;20189;-71
2023/02/22 03:03:42;;;;;;;22.23;6.05;;;;;;;7.10;87.22;101142.94;5023127;28;20193;-71
2023/02/22 03:06:28;;;;;;;14.45;4.32;;;;;;;7.30;87.46;101145.03;5026314;28;20655;-72
2023/02/22 03:09:05;;;;;;;14.68;4.43;;;;;;;7.23;87.79;101149.44;5020896;28;20193;-71
2023/02/22 03:11:43;;;;;;;16.33;6.78;;;;;;;7.36;86.97;101148.84;5025568;28;20247;-71
2023/02/22 03:14:22;;;;;;;23.77;5.45;;;;;;;7.46;86.46;101143.25;5018949;28;20194;-72
2023/02/22 03:16:58;;;;;;;21.25;4.82;;;;;;;7.45;86.31;101141.59;5013454;28;20228;-72
2023/02/22 03:19:37;;;;;;;18.65;4.35;;;;;;;7.52;85.11;101137.19;5008376;28;20202;-72
2023/02/22 03:22:14;;;;;;;8.75;3.75;;;;;;;7.59;85.40;101146.25;5028915;28;20210;-71
2023/02/22 03:24:54;;;;;;;16.90;4.05;;;;;;;7.71;85.50;101136.72;5021663;28;20616;-69
2023/02/22 03:27:28;;;;;;;12.73;4.47;;;;;;;7.56;85.78;101138.50;5011602;28;20312;-69
2023/02/22 03:30:05;;;;;;;20.35;4.78;;;;;;;7.51;85.97;101144.41;5014977;28;20202;-72
2023/02/22 03:32:41;;;;;;;11.38;4.03;;;;;;;7.57;86.12;101141.03;5024853;28;20212;-71
2023/02/22 03:35:18;;;;;;;25.75;5.18;;;;;;;7.54;86.15;101136.00;5006322;28;20204;-70
2023/02/22 03:37:53;;;;;;;20.67;4.38;;;;;;;7.66;86.29;101133.72;5021581;28;20245;-70
2023/02/22 03:40:27;;;;;;;8.80;3.42;;;;;;;7.73;85.46;101143.63;5016184;28;20190;-72
2023/02/22 03:43:02;;;;;;;16.90;3.90;;;;;;;7.66;85.54;101141.81;5014860;28;20190;-71
2023/02/22 03:45:34;;;;;;;24.27;5.28;;;;;;;7.79;84.71;101150.16;5014563;28;20670;-71
2023/02/22 03:48:11;;;;;;;11.25;4.25;;;;;;;7.81;85.00;101143.56;5014671;28;20214;-71
2023/02/22 03:50:42;;;;;;;22.80;5.30;;;;;;;7.56;85.38;101147.41;5028832;28;20260;-70
2023/02/22 03:53:12;;;;;;;22.15;5.43;;;;;;;7.65;86.17;101153.63;5016951;28;20236;-71
2023/02/22 03:55:42;;;;;;;16.75;5.40;;;;;;;7.59;86.18;101151.63;5019688;28;20194;-71
2023/02/22 03:58:13;;;;;;;11.82;4.55;;;;;;;7.70;85.99;101156.59;5022956;28;20221;-71
2023/02/22 04:00:43;;;;;;;17.95;5.88;;;;;;;7.57;86.75;101153.66;5020944;28;20395;-70
2023/02/22 04:03:12;;;;;;;13.10;4.35;;;;;;;7.50;88.09;101161.63;5009695;28;20261;-71
2023/02/22 04:05:43;;;;;;;9.63;4.00;;;;;;;7.61;87.66;101153.13;4996869;28;20671;-69
2023/02/22 04:08:13;;;;;;;16.73;4.95;;;;;;;7.53;88.13;101145.09;5019933;28;20764;-72
2023/02/22 04:10:42;;;;;;;20.38;4.22;;;;;;;7.54;87.61;101154.84;5031551;28;20233;-70
2023/02/22 04:13:13;;;;;;;19.13;5.68;;;;;;;7.39;88.06;101149.38;5022077;28;20206;-71
2023/02/22 04:15:47;;;;;;;23.55;5.32;;;;;;;7.32;89.09;101156.47;5025243;28;20221;-71
2023/02/22 04:18:16;;;;;;;20.75;5.10;;;;;;;7.11;89.56;101156.22;5022682;28;20780;-73
2023/02/22 04:20:48;;;;;;;26.75;6.63;;;;;;;6.95;90.42;101153.56;5020592;28;20232;-72
2023/02/22 04:23:41;;;;;;;13.85;4.90;;;;;;;6.78;91.63;101154.59;5028111;28;20200;-70
2023/02/22 04:26:11;;;;;;;21.10;5.72;;;;;;;6.81;92.22;101147.03;5022144;28;20202;-71
2023/02/22 04:28:41;;;;;;;15.48;5.60;;;;;;;6.73;92.65;101151.63;5027430;28;20229;-70
2023/02/22 04:31:14;;;;;;;11.25;5.97;;;;;;;6.90;92.92;101150.56;5008000;28;20228;-68
2023/02/22 04:33:44;;;;;;;21.85;6.15;;;;;;;6.99;92.78;101153.03;5004859;28;20263;-71
2023/02/22 04:36:18;;;;;;;19.45;5.55;;;;;;;7.03;91.93;101153.53;5024757;28;20202;-71
2023/02/22 04:38:48;;;;;;;9.73;4.47;;;;;;;7.02;92.30;101146.47;5028980;28;20755;-71
2023/02/22 04:41:18;;;;;;;14.80;5.57;;;;;;;7.10;91.95;101146.47;5018235;28;20593;-72
2023/02/22 04:43:48;;;;;;;16.33;5.32;;;;;;;6.97;92.24;101149.69;5004612;28;20206;-70
2023/02/22 04:46:21;;;;;;;17.75;4.15;;;;;;;6.97;92.61;101148.88;5029371;28;20230;-71
2023/02/22 04:48:50;;;;;;;18.27;5.45;;;;;;;7.14;92.30;101145.09;5021754;28;20224;-71
2023/02/22 04:51:24;;;;;;;20.92;5.85;;;;;;;7.03;92.23;101147.31;5015460;28;20293;-71
2023/02/22 04:54:00;;;;;;;11.02;6.35;;;;;;;6.91;92.99;101146.84;5010121;28;20212;-71
2023/02/22 04:56:30;;;;;;;21.67;6.88;;;;;;;7.03;92.51;101142.75;5009955;28;20272;-70
2023/02/22 04:59:00;;;;;;;9.93;4.93;;;;;;;7.07;91.30;101138.72;5012425;28;20178;-71
2023/02/22 05:01:32;;;;;;;25.95;7.60;;;;;;;6.92;91.67;101138.59;5012123;28;20202;-69
2023/02/22 05:04:03;;;;;;;28.98;9.88;;;;;;;6.77;92.93;101144.88;5011211;28;20216;-72
2023/02/22 05:06:33;;;;;;;21.08;5.65;;;;;;;6.89;93.71;101146.19;5005154;28;20218;-69
2023/02/22 05:09:03;;;;;;;12.30;5.90;;;;;;;7.05;93.94;101139.91;5032195;28;20221;-71
2023/02/22 05:11:33;;;;;;;37.47;7.65;;;;;;;7.25;91.23;101147.41;5027492;28;20198;-69
2023/02/22 05:14:02;;;;;;;16.25;5.53;;;;;;;7.24;91.26;101144.88;5023859;28;20194;-69
2023/02/22 05:16:31;;;;;;;14.32;5.47;;;;;;;7.09;91.94;101134.00;5026007;28;20672;-69
2023/02/22 05:19:01;;;;;;;20.00;6.93;;;;;;;7.16;92.25;101123.41;5013168;28;20233;-71
2023/02/22 05:21:32;;;;;;;16.50;6.78;;;;;;;7.07;93.14;101130.63;5022453;28;20212;-70
2023/02/22 05:24:01;;;;;;;21.33;6.60;;;;;;;7.19;93.63;101131.13;5021407;28;20194;-72
2023/02/22 05:26:30;;;;;;;29.60;8.57;;;;;;;7.26;92.91;101129.41;5012625;28;20646;-70
2023/02/22 05:28:59;;;;;;;21.27;5.97;;;;;;;7.35;93.11;101131.91;5044093;28;20725;-71
2023/02/22 05:31:29;;;;;;;17.88;5.63;;;;;;;7.39;92.68;101133.22;5019029;28;20273;-71
2023/02/22 05:33:58;;;;;;;16.48;7.78;;;;;;;7.36;93.66;101130.00;5007892;28;20263;-71
2023/02/22 05:36:27;;;;;;;13.23;5.72;;;;;;;7.43;93.51;101139.94;5010376;28;20218;-69
2023/02/22 05:38:58;;;;;;;13.88;4.93;;;;;;;7.50;93.36;101133.84;5023657;28;20186;-70
2023/02/22 05:41:28;;;;;;;12.98;4.78;;;;;;;7.58;93.10;101131.09;5007647;28;20202;-72
2023/02/22 05:43:58;;;;;;;25.75;6.75;;;;;;;7.54;93.33;101136.00;5026781;28;20698;-72
2023/02/22 05:46:27;;;;;;;24.02;4.43;;;;;;;7.61;93.17;101133.41;5017732;28;20214;-72
2023/02/22 05:48:56;;;;;;;14.55;4.82;;;;;;;7.49;93.56;101137.53;5002721;28;20220;-72
2023/02/22 05:51:25;;;;;;;20.80;5.32;;;;;;;7.71;93.11;101142.13;5026560;28;20345;-72
2023/02/22 05:53:54;;;;;;;12.02;4.88;;;;;;;7.76;92.73;101145.13;5018600;28;20202;-70
2023/02/22 05:56:29;;;;;;;27.23;5.50;;;;;;;7.71;92.56;101142.13;5013096;28;20217;-71
2023/02/22 05:58:58;;;;;;;7.95;3.60;;;;;;;7.67;93.38;101136.25;5028907;28;20256;-72
2023/02/22 06:01:28;;;;;;;21.33;7.78;;;;;;;7.72;93.31;101149.19;5019175;28;20224;-72
2023/02/22 06:03:57;;;;;;;21.88;6.10;;;;;;;7.78;93.05;101143.09;5012183;28;20233;-72
2023/02/22 06:10:10;;;;;;;20.85;3.72;;;;;;;7.92;92.08;101146.88;5023003;28;20210;-70
2023/02/22 06:12:41;;;;;;;19.65;5.00;;;;;;;7.79;92.63;101150.97;5013963;28;20208;-68
2023/02/22 06:15:10;;;;;;;18.80;5.70;;;;;;;7.90;91.95;101148.91;5013228;28;20198;-71
2023/02/22 06:17:40;;;;;;;10.07;4.38;;;;;;;7.86;93.02;101151.13;5029094;28;20275;-70
2023/02/22 06:20:11;;;;;;;18.13;4.70;;;;;;;7.99;91.92;101156.75;5026122;28;20569;-69
2023/02/22 06:22:41;;;;;;;11.35;5.13;;;;;;;8.03;92.08;101165.34;5018464;28;20209;-69
2023/02/22 06:25:13;;;;;;;21.63;4.18;;;;;;;7.92;91.92;101158.50;5034098;28;20201;-69
2023/02/22 06:27:44;;;;;;;25.20;6.18;;;;;;;7.90;92.30;101163.22;5029347;28;20213;-67
2023/02/22 06:30:15;;;;;;;24.48;6.35;;;;;;;7.82;92.73;101166.81;5020044;28;20206;-67
2023/02/22 06:32:54;;;;;;;26.30;7.28;;;;;;;7.88;92.09;101165.28;5016567;28;20303;-68
2023/02/22 06:35:24;;;;;;;26.30;5.82;;;;;;;7.86;92.17;101162.75;5028391;28;20216;-69
2023/02/22 06:37:53;;;;;;;15.70;5.63;;;;;;;7.92;92.28;101171.97;5026136;28;20323;-70
2023/02/22 06:40:23;;;;;;;21.95;6.95;;;;;;;8.04;91.52;101170.53;5022066;28;20186;-70
2023/02/22 06:42:53;;;;;;;19.30;6.45;;;;;;;8.06;90.47;101170.38;5018503;28;20697;-70
2023/02/22 06:45:23;;;;;;;12.50;5.03;;;;;;;8.02;89.89;101174.44;5015471;28;20195;-69
2023/02/22 06:47:52;;;;;;;19.52;6.15;;;;;;;8.08;89.55;101174.56;5003503;28;20253;-69
2023/02/22 06:50:24;;;;;;;20.52;4.63;;;;;;;8.25;87.56;101178.81;5028357;28;20257;-70
2023/02/22 06:52:54;;;;;;;22.40;4.88;;;;;;;8.21;87.66;101176.66;5026467;28;20194;-70
2023/02/22 06:55:49;;;;;;;11.38;4.07;;;;;;;8.17;87.99;101181.59;5027410;28;20197;-68
2023/02/22 06:58:19;;;;;;;21.27;6.03;;;;;;;8.22;87.50;101184.56;5012677;28;20214;-69
2023/02/22 07:00:49;;;;;;;32.13;5.18;;;;;;;8.29;87.28;101184.69;5017363;28;20229;-69
2023/02/22 07:03:18;;;;;;;18.85;4.60;;;;;;;8.51;86.87;101185.72;5023556;28;20193;-70
2023/02/22 07:05:47;;;;;;;23.40;5.40;;;;;;;8.57;86.05;101187.66;5036419;28;20674;-67
2023/02/22 07:08:17;;;;;;;18.50;4.28;;;;;;;8.72;84.54;101183.16;5022166;28;20251;-69
2023/02/22 07:10:49;;;;;;;14.80;5.38;;;;;;;8.65;84.48;101187.63;5021440;28;20197;-67
2023/02/22 07:13:20;;;;;;;19.33;5.25;;;;;;;8.62;84.58;101190.66;5029423;28;20224;-69
2023/02/22 07:15:49;;;;;;;16.42;6.07;;;;;;;8.69;84.23;101180.84;5037331;28;20209;-68
2023/02/22 07:18:18;;;;;;;16.30;5.00;;;;;;;8.65;84.80;101196.56;5007295;28;20218;-68
2023/02/22 07:20:47;;;;;;;13.27;5.20;;;;;;;8.63;84.82;101195.03;5014591;28;20285;-69
2023/02/22 07:23:18;;;;;;;23.50;5.88;;;;;;;8.76;85.00;101192.59;5024353;28;20415;-70
2023/02/22 07:25:47;;;;;;;20.65;5.50;;;;;;;9.00;84.18;101191.50;5011293;28;20293;-71
2023/02/22 07:28:17;;;;;;;22.13;7.53;;;;;;;8.94;83.43;101189.53;5007238;28;20695;-72
2023/02/22 07:30:47;;;;;;;19.15;6.30;;;;;;;8.92;82.55;101191.56;5023380;28;20260;-71
2023/02/22 07:33:17;;;;;;;22.05;5.78;;;;;;;8.88;82.90;101193.81;5016658;28;20555;-72
2023/02/22 07:35:51;;;;;;;25.35;7.00;;;;;;;9.02;82.21;101192.13;5015362;28;20204;-70
2023/02/22 07:38:21;;;;;;;19.23;6.03;;;;;;;9.06;81.90;101196.13;5020911;28;20561;-73
2023/02/22 07:40:50;;;;;;;30.60;7.40;;;;;;;9.07;80.75;101193.25;5014747;28;20434;-73
2023/02/22 07:43:21;;;;;;;18.70;6.15;;;;;;;9.13;80.29;101189.84;5030360;28;20456;-72
2023/02/22 07:45:55;;;;;;;19.17;4.93;;;;;;;9.22;79.43;101195.13;5023612;28;20193;-71
2023/02/22 07:48:27;;;;;;;18.98;6.70;;;;;;;9.12;78.92;101201.66;5021816;28;20486;-72
2023/02/22 07:50:57;;;;;;;16.80;5.70;;;;;;;9.14;78.46;101202.31;5021819;28;20197;-71
2023/02/22 07:53:29;;;;;;;16.30;6.40;;;;;;;9.12;77.46;101187.31;5015815;28;20423;-72
2023/02/22 07:56:00;;;;;;;25.87;5.87;;;;;;;9.12;77.67;101187.31;5028544;28;20433;-70
2023/02/22 07:58:32;;;;;;;16.20;7.60;;;;;;;9.08;76.55;101197.66;5014641;28;20491;-71
2023/02/22 08:01:03;;;;;;;23.70;6.30;;;;;;;9.11;76.96;101199.97;5015482;28;20443;-72
2023/02/22 08:03:35;;;;;;;16.63;7.97;;;;;;;9.07;77.75;101204.06;5014269;28;20406;-72
2023/02/22 08:06:07;;;;;;;22.80;7.72;;;;;;;9.10;77.57;101195.59;5018289;28;20559;-71
2023/02/22 08:08:36;;;;;;;22.63;7.77;;;;;;;9.05;77.71;101197.19;5010023;28;20257;-73
2023/02/22 08:11:06;;;;;;;21.40;7.47;;;;;;;9.04;77.77;101198.22;5003855;28;20460;-70
2023/02/22 08:13:37;;;;;;;23.10;8.10;;;;;;;8.87;78.58;101200.22;5021321;28;20482;-71
2023/02/22 08:16:08;;;;;;;17.58;9.35;;;;;;;8.94;78.92;101195.78;5006989;28;20449;-71
2023/02/22 08:18:38;;;;;;;19.40;8.73;;;;;;;9.12;78.91;101204.34;5029274;28;20233;-71
2023/02/22 08:21:07;;;;;;;27.30;8.65;;;;;;;9.06;77.50;101199.69;5030260;28;20427;-71
2023/02/22 08:23:37;;;;;;;31.43;8.30;;;;;;;9.22;77.35;101187.03;5024742;28;20685;-72
2023/02/22 08:26:09;;;;;;;34.70;12.13;;;;;;;9.52;77.14;101194.09;4995531;28;20444;-72
2023/02/22 08:28:38;;;;;;;15.53;6.70;;;;;;;9.42;76.55;101202.50;5011194;28;20974;-71
2023/02/22 08:31:09;;;;;;;23.67;8.70;;;;;;;9.27;77.64;101196.25;5025592;28;20468;-71
2023/02/22 08:33:38;;;;;;;18.13;8.17;;;;;;;9.40;76.77;101201.00;5021229;28;20486;-72
2023/02/22 08:36:09;;;;;;;17.20;7.00;;;;;;;9.44;76.34;101196.91;5006733;28;20420;-72
2023/02/22 08:38:38;;;;;;;19.03;6.77;;;;;;;9.47;75.84;101201.94;5013866;28;20432;-71
2023/02/22 08:41:07;;;;;;;15.13;6.23;;;;;;;9.41;75.61;101197.28;5019759;28;20504;-71
2023/02/22 08:43:38;;;;;;;28.20;6.77;;;;;;;9.47;76.67;101199.22;5017161;28;20952;-71
2023/02/22 08:46:08;;;;;;;16.60;5.53;;;;;;;9.59;75.74;101195.84;5035486;28;20473;-73
2023/02/22 08:48:38;;;;;;;17.93;8.00;;;;;;;9.69;75.44;101195.56;5031578;28;20403;-71
2023/02/22 08:51:08;;;;;;;15.87;6.40;;;;;;;9.67;74.93;101196.78;5025444;28;20498;-73
2023/02/22 08:53:38;;;;;;;13.67;5.67;;;;;;;9.69;74.67;101195.56;5024725;28;20427;-72
2023/02/22 08:56:07;;;;;;;20.00;7.50;;;;;;;9.88;74.07;101203.06;5017337;28;20920;-72
2023/02/22 08:58:39;;;;;;;16.57;6.77;;;;;;;9.91;73.61;101200.00;5034463;28;20464;-72
2023/02/22 09:01:10;;;;;;;17.83;5.73;;;;;;;9.92;72.92;101190.03;5020872;28;20467;-72
2023/02/22 09:03:49;;;;;;;17.80;4.90;;;;;;;10.15;72.14;101201.50;5007094;28;20454;-70
2023/02/22 09:06:50;;;;;;;23.30;6.20;;;;;;;10.02;71.85;101202.19;5021123;28;20455;-71
2023/02/22 09:09:20;;;;;;;21.13;4.80;;;;;;;10.02;71.91;101199.47;5024644;28;20446;-73
2023/02/22 09:11:50;;;;;;;25.60;6.03;;;;;;;10.03;71.65;101198.47;5033814;28;20436;-70
2023/02/22 09:14:21;;;;;;;17.67;5.27;;;;;;;10.13;71.30;101200.00;5027618;28;20415;-73
2023/02/22 09:16:52;;;;;;;11.07;3.90;;;;;;;10.29;70.75;101199.81;5028369;28;20455;-73
2023/02/22 09:19:21;;;;;;;22.70;5.60;;;;;;;10.22;70.52;101198.88;5024905;28;20416;-72
2023/02/22 09:21:54;;;;;;;16.73;7.43;;;;;;;10.42;69.82;101197.22;5017731;28;20421;-72
2023/02/22 09:24:24;;;;;;;16.73;4.60;;;;;;;10.39;70.10;101201.16;5012456;28;20417;-72
2023/02/22 09:26:54;;;;;;;35.57;6.77;;;;;;;10.39;69.46;101197.63;5034983;28;20464;-72
2023/02/22 09:29:49;;;;;;;15.53;6.33;;;;;;;10.63;69.25;101199.94;5019544;28;20430;-71
2023/02/22 09:32:20;;;;;;;18.03;6.10;;;;;;;10.77;68.24;101196.28;5025295;28;20395;-69
2023/02/22 09:34:51;;;;;;;17.80;5.07;;;;;;;10.82;67.73;101199.25;5013599;28;20446;-71
2023/02/22 09:37:20;;;;;;;16.63;4.77;;;;;;;10.84;68.28;101197.16;5018619;28;20431;-72
2023/02/22 09:39:52;;;;;;;15.33;4.87;;;;;;;11.00;66.48;101198.75;5020049;28;20466;-70
2023/02/22 09:42:30;;;;;;;30.93;8.00;;;;;;;10.97;67.26;101190.19;5025409;28;20443;-71
2023/02/22 09:45:05;;;;;;;14.27;3.93;;;;;;;10.83;67.71;101190.09;5017713;28;20414;-72
2023/02/22 09:47:41;;;;;;;18.07;5.70;;;;;;;10.92;68.04;101184.53;5010655;28;20871;-70
2023/02/22 09:50:16;;;;;;;20.47;6.10;;;;;;;11.13;66.88;101189.91;5018383;28;20458;-71
2023/02/22 09:52:55;;;;;;;17.93;4.40;;;;;;;10.86;65.54;101189.69;5021531;28;20431;-71
2023/02/22 09:55:34;;;;;;;20.23;6.80;;;;;;;10.70;66.99;101181.84;5028273;28;20414;-70
2023/02/22 09:58:10;;;;;;;15.43;5.47;;;;;;;10.92;66.88;101181.81;5028749;28;20489;-71
2023/02/22 10:00:42;;;;;;;25.40;5.47;;;;;;;10.92;66.55;101181.81;5025276;28;20445;-72
2023/02/22 10:03:23;;;;;;;10.80;4.03;;;;;;;10.99;65.92;101180.00;5030194;28;20418;-71
2023/02/22 10:06:10;;;;;;;18.43;5.10;;;;;;;11.08;65.16;101178.81;5017969;28;20481;-68
2023/02/22 10:08:42;;;;;;;17.10;4.93;;;;;;;11.20;65.04;101179.91;5039989;28;20506;-69
2023/02/22 10:11:20;;;;;;;33.17;6.60;;;;;;;11.31;64.88;101176.66;5015192;28;20476;-68
2023/02/22 10:14:00;;;;;;;16.60;4.67;;;;;;;11.14;65.79;101180.72;5034788;28;20422;-70
2023/02/22 10:16:36;;;;;;;17.27;5.30;;;;;;;11.33;65.18;101169.16;5015928;28;20491;-69
2023/02/22 10:19:26;;;;;;;17.70;5.40;;;;;;;11.13;65.71;101166.34;5005013;28;21045;-70
2023/02/22 10:22:18;;;;;;;16.53;5.20;;;;;;;11.15;65.75;101166.13;5017411;28;20416;-68
2023/02/22 10:25:40;;;;;;;19.43;6.10;;;;;;;11.20;65.49;101171.78;5004597;28;20405;-67
2023/02/22 10:28:16;;;;;;;18.47;4.43;;;;;;;11.30;64.98;101177.69;5013660;28;20451;-68
2023/02/22 10:30:53;;;;;;;12.83;5.67;;;;;;;11.32;64.74;101172.91;5028848;28;20857;-68
2023/02/22 10:33:26;;;;;;;12.53;4.27;;;;;;;11.44;64.14;101170.47;5013682;28;20449;-71
2023/02/22 10:35:58;;;;;;;18.33;5.20;;;;;;;11.65;64.01;101165.78;5019388;28;20418;-70
2023/02/22 10:38:29;;;;;;;16.30;5.10;;;;;;;11.38;63.33;101172.09;5012864;28;20432;-70
2023/02/22 10:41:03;;;;;;;20.63;3.30;;;;;;;11.46;62.95;101166.53;5016445;28;20415;-68
2023/02/22 10:43:33;;;;;;;11.80;3.43;;;;;;;11.39;62.83;101167.50;5019124;28;20428;-69
2023/02/22 10:46:06;;;;;;;17.73;5.47;;;;;;;11.28;62.13;101168.91;5013901;28;20412;-70
2023/02/22 10:48:38;;;;;;;16.10;3.63;;;;;;;11.30;62.50;101164.97;5026496;28;20443;-69
2023/02/22 10:51:10;;;;;;;10.33;3.53;;;;;;;11.48;62.18;101152.75;5017931;28;20471;-69
2023/02/22 10:53:40;;;;;;;9.77;3.53;;;;;;;11.62;62.23;101155.31;5031413;28;20956;-69
2023/02/22 10:56:20;;;;;;;10.53;3.90;;;;;;;11.49;62.46;101157.16;5010515;28;20909;-67
2023/02/22 10:58:53;;;;;;;17.80;4.73;;;;;;;11.21;63.01;101165.34;5014891;28;20949;-67
2023/02/22 11:01:36;;;;;;;17.23;3.87;;;;;;;11.21;62.88;101159.94;5011355;28;20422;-69
2023/02/22 11:04:11;;;;;;;14.73;4.30;;;;;;;11.21;63.48;101154.50;5022194;28;20794;-70
2023/02/22 11:06:44;;;;;;;14.03;4.40;;;;;;;11.23;63.74;101153.25;5009860;28;20442;-69
2023/02/22 11:09:16;;;;;;;26.50;6.50;;;;;;;11.51;63.38;101155.91;5011824;28;20419;-69
2023/02/22 11:11:47;;;;;;;12.77;4.00;;;;;;;11.58;62.48;101154.06;5015288;28;20534;-68
2023/02/22 11:14:31;;;;;;;15.70;4.90;;;;;;;11.61;62.09;101155.53;5009335;28;20424;-69
2023/02/22 11:17:06;;;;;;;12.20;4.27;;;;;;;11.53;62.24;101147.56;5012491;28;20810;-70
2023/02/22 11:19:37;;;;;;;8.93;3.70;;;;;;;11.44;62.63;101148.78;5016631;28;20453;-69
2023/02/22 11:22:14;;;;;;;11.73;3.40;;;;;;;11.59;62.01;101153.03;5014242;28;20822;-69
2023/02/22 11:24:50;;;;;;;15.93;4.47;;;;;;;11.49;62.32;101149.84;5013566;28;20430;-67
2023/02/22 11:27:30;;;;;;;13.30;3.27;;;;;;;11.56;62.97;101153.44;5010408;28;20434;-69
2023/02/22 11:30:19;;;;;;;21.23;7.07;;;;;;;11.62;62.40;101143.63;5007131;28;20423;-68
2023/02/22 11:32:53;;;;;;;12.33;3.47;;;;;;;11.71;62.46;101134.31;5026688;28;20451;-68
2023/02/22 11:40:10;;;;;;;12.00;4.27;;;;;;;11.94;62.05;101129.41;5013438;28;20410;-69
2023/02/22 11:42:40;;;;;;;17.37;5.90;;;;;;;11.64;62.98;101128.00;5007458;28;20854;-68
2023/02/22 11:45:12;;;;;;;17.00;5.07;;;;;;;11.54;63.07;101128.41;5008555;28;20438;-71
2023/02/22 11:47:54;;;;;;;13.43;3.97;;;;;;;11.49;63.53;101119.19;5012862;28;20480;-69
2023/02/22 11:50:33;;;;;;;19.30;7.13;;;;;;;11.51;63.81;101123.41;5013648;28;20431;-70
2023/02/22 11:53:26;;;;;;;14.60;4.97;;;;;;;11.43;63.79;101125.44;5016310;28;20515;-69
2023/02/22 11:56:14;;;;;;;10.70;4.80;;;;;;;11.31;64.41;101120.59;5004094;28;20817;-72
2023/02/22 11:58:50;;;;;;;9.20;4.40;;;;;;;11.44;64.44;101111.69;5014803;28;20475;-67
2023/02/22 12:01:28;;;;;;;14.40;5.60;;;;;;;11.31;64.77;101112.47;5007545;28;20426;-70